Detall de PIREP

Printer-friendly versionPDF version

[2010/09/27 10:16:00]
Flight IATA:CT0001
Pilot Number:011
Company ICAO:CAT
Aircraft Type:F100/A
PAX:122
Departing Airport: LEAL
Destination Airport: LERS
Alternate Airport:LEPA
Online: VATSIM
Route:MITOS UN609 MATEX/N250F100 R60 AMPOL
Flight Level:FL260
No Slew and time accel
No pause
Crash detect
Detect pilot in Cockpit between each 30 and 45 minutes
10:16 Zero fuel Weight: 85762 Lbs, Fuel Weight: 9905 Lbs
10:16 VATSIM:LEAL 271000Z VRB02KT 9999 FEW025 23/15 Q1014 NOSIG
10:16 VATSIM:LERS 271000Z VRB01KT 9999 FEW035 18/04 Q1014
10:17 Parking Brakes off
10:27 Take-off
10:27 Take off Weight: 95125 Lbs
10:27 Wind: 023º @ 006 Knots Heading: 098º
10:27 POS N38º 16´ 54´´ W000º 33´ 16´´
10:27 Flaps:2 at 167 Knots
10:27 Gear Up: 176 Knots
10:28 Flaps:1 at 138 Knots
10:29 Flaps:0 at 145 Knots
10:41 TOC
10:41 Fuel Weight: 7434 Lb
10:42 Wind:086º@010 Knots Heading: 001º Ground Speed: 383 Knots Altitude 26036 ft
10:49 TOD
10:49 Fuel Weight: 6700 Lb
10:57 Wind:251º@021 Knots Heading: 046º Ground Speed: 320 Knots Altitude 11492 ft
11:05 Flaps:1 at 246 Knots
11:06 Flaps:2 at 223 Knots
11:09 Flaps:3 at 178 Knots
11:09 Gear Down: 175 Knots
11:10 Flaps:4 at 156 Knots
11:12 Wind:255º@010 Knots Heading: 250º Ground Speed: 133 Knots Altitude 1072 ft
11:13 TouchDown:Rate -116 ft/min Speed: 123 Knots
11:13 VATSIM:LERS 271100Z 25010KT 180V310 9999 FEW035 19/02 Q1014
11:13 Land
11:13 Wind:238º@010 Knots
11:13 Heading: 249º
11:13 Flight Duration: 00:46
11:13 Landing Weight: 91289 Lbs
11:13 POS N41º 08´ 47´´ E001º 09´ 50´´
11:15 Parking brakes on
11:15 Block to Block Duration: 00:58
11:15 Final Fuel: 5438 Lbls
11:15 Spent Fuel: 4466 Lbls
11:15 Flight Length: 233 NM
11:15 TOD Land Length: 110 NM

Exportar CSV

Powered by Drupal - Modified by Danger4k